sensor_id;sensor_type;location;lat;lon;timestamp;P1;durP1;ratioP1;P2;durP2;ratioP2
12476;SDS011;6303;51.504;6.300;2023-05-07T00:02:23;3.92;;;1.20;;
12476;SDS011;6303;51.504;6.300;2023-05-07T00:04:50;2.30;;;1.42;;
12476;SDS011;6303;51.504;6.300;2023-05-07T00:07:17;1.63;;;1.38;;
12476;SDS011;6303;51.504;6.300;2023-05-07T00:09:44;4.18;;;1.70;;
12476;SDS011;6303;51.504;6.300;2023-05-07T00:12:12;2.38;;;1.30;;
12476;SDS011;6303;51.504;6.300;2023-05-07T00:14:39;3.05;;;1.50;;
12476;SDS011;6303;51.504;6.300;2023-05-07T00:17:06;3.10;;;1.52;;
12476;SDS011;6303;51.504;6.300;2023-05-07T00:19:34;1.67;;;1.45;;
12476;SDS011;6303;51.504;6.300;2023-05-07T00:22:02;1.50;;;1.40;;
12476;SDS011;6303;51.504;6.300;2023-05-07T00:24:29;1.88;;;1.42;;
12476;SDS011;6303;51.504;6.300;2023-05-07T00:26:56;1.85;;;1.52;;
12476;SDS011;6303;51.504;6.300;2023-05-07T00:29:23;2.17;;;1.50;;
12476;SDS011;6303;51.504;6.300;2023-05-07T00:31:50;2.42;;;1.45;;
12476;SDS011;6303;51.504;6.300;2023-05-07T00:34:19;1.90;;;1.58;;
12476;SDS011;6303;51.504;6.300;2023-05-07T00:36:47;2.13;;;1.50;;
12476;SDS011;6303;51.504;6.300;2023-05-07T00:39:14;2.40;;;1.45;;
12476;SDS011;6303;51.504;6.300;2023-05-07T00:41:42;3.13;;;1.40;;
12476;SDS011;6303;51.504;6.300;2023-05-07T00:44:09;1.88;;;1.50;;
12476;SDS011;6303;51.504;6.300;2023-05-07T00:46:36;2.47;;;1.48;;
12476;SDS011;6303;51.504;6.300;2023-05-07T00:49:03;1.58;;;1.30;;
12476;SDS011;6303;51.504;6.300;2023-05-07T00:51:31;1.73;;;1.30;;
12476;SDS011;6303;51.504;6.300;2023-05-07T00:54:01;2.05;;;1.45;;
12476;SDS011;6303;51.504;6.300;2023-05-07T00:56:29;1.67;;;1.40;;
12476;SDS011;6303;51.504;6.300;2023-05-07T00:58:57;2.08;;;1.42;;
12476;SDS011;6303;51.504;6.300;2023-05-07T01:01:24;2.78;;;1.90;;
12476;SDS011;6303;51.504;6.300;2023-05-07T01:03:52;1.50;;;1.40;;
12476;SDS011;6303;51.504;6.300;2023-05-07T01:06:19;1.60;;;1.48;;
12476;SDS011;6303;51.504;6.300;2023-05-07T01:08:49;2.95;;;1.30;;
12476;SDS011;6303;51.504;6.300;2023-05-07T01:11:19;2.65;;;1.58;;
12476;SDS011;6303;51.504;6.300;2023-05-07T01:13:47;1.67;;;1.58;;
12476;SDS011;6303;51.504;6.300;2023-05-07T01:16:15;1.45;;;1.35;;
12476;SDS011;6303;51.504;6.300;2023-05-07T01:18:42;1.48;;;1.38;;
12476;SDS011;6303;51.504;6.300;2023-05-07T01:21:10;3.40;;;1.40;;
12476;SDS011;6303;51.504;6.300;2023-05-07T01:23:39;1.60;;;1.50;;
12476;SDS011;6303;51.504;6.300;2023-05-07T01:26:07;1.80;;;1.45;;
12476;SDS011;6303;51.504;6.300;2023-05-07T01:28:34;1.60;;;1.42;;
12476;SDS011;6303;51.504;6.300;2023-05-07T01:31:02;2.28;;;1.45;;
12476;SDS011;6303;51.504;6.300;2023-05-07T01:33:33;1.73;;;1.63;;
12476;SDS011;6303;51.504;6.300;2023-05-07T01:36:02;1.95;;;1.40;;
12476;SDS011;6303;51.504;6.300;2023-05-07T01:38:31;3.22;;;1.48;;
12476;SDS011;6303;51.504;6.300;2023-05-07T01:41:00;1.50;;;1.40;;
12476;SDS011;6303;51.504;6.300;2023-05-07T01:43:28;1.58;;;1.48;;
12476;SDS011;6303;51.504;6.300;2023-05-07T01:45:55;1.67;;;1.58;;
12476;SDS011;6303;51.504;6.300;2023-05-07T01:48:25;2.55;;;1.70;;
12476;SDS011;6303;51.504;6.300;2023-05-07T01:50:52;1.88;;;1.50;;
12476;SDS011;6303;51.504;6.300;2023-05-07T01:53:19;3.00;;;1.48;;
12476;SDS011;6303;51.504;6.300;2023-05-07T01:55:47;1.45;;;1.27;;
12476;SDS011;6303;51.504;6.300;2023-05-07T01:58:16;1.77;;;1.60;;
12476;SDS011;6303;51.504;6.300;2023-05-07T02:00:43;1.45;;;1.35;;
12476;SDS011;6303;51.504;6.300;2023-05-07T02:03:11;1.45;;;1.35;;
12476;SDS011;6303;51.504;6.300;2023-05-07T02:05:45;2.05;;;1.50;;
12476;SDS011;6303;51.504;6.300;2023-05-07T02:08:26;1.95;;;1.60;;
12476;SDS011;6303;51.504;6.300;2023-05-07T02:10:54;1.73;;;1.60;;
12476;SDS011;6303;51.504;6.300;2023-05-07T02:13:22;3.00;;;1.70;;
12476;SDS011;6303;51.504;6.300;2023-05-07T02:15:49;3.35;;;1.40;;
12476;SDS011;6303;51.504;6.300;2023-05-07T02:18:17;1.92;;;1.58;;
12476;SDS011;6303;51.504;6.300;2023-05-07T02:20:44;1.70;;;1.60;;
12476;SDS011;6303;51.504;6.300;2023-05-07T02:23:11;1.67;;;1.58;;
12476;SDS011;6303;51.504;6.300;2023-05-07T02:25:38;1.52;;;1.40;;
12476;SDS011;6303;51.504;6.300;2023-05-07T02:28:05;1.70;;;1.60;;
12476;SDS011;6303;51.504;6.300;2023-05-07T02:30:43;1.95;;;1.60;;
12476;SDS011;6303;51.504;6.300;2023-05-07T02:33:10;2.28;;;1.50;;
12476;SDS011;6303;51.504;6.300;2023-05-07T02:35:39;1.50;;;1.40;;
12476;SDS011;6303;51.504;6.300;2023-05-07T02:38:07;2.60;;;1.50;;
12476;SDS011;6303;51.504;6.300;2023-05-07T02:40:36;1.73;;;1.60;;
12476;SDS011;6303;51.504;6.300;2023-05-07T02:43:04;2.03;;;1.48;;
12476;SDS011;6303;51.504;6.300;2023-05-07T02:45:32;1.80;;;1.60;;
12476;SDS011;6303;51.504;6.300;2023-05-07T02:48:02;3.05;;;1.38;;
12476;SDS011;6303;51.504;6.300;2023-05-07T02:50:31;3.22;;;1.70;;
12476;SDS011;6303;51.504;6.300;2023-05-07T02:52:58;1.50;;;1.40;;
12476;SDS011;6303;51.504;6.300;2023-05-07T02:55:25;2.30;;;1.50;;
12476;SDS011;6303;51.504;6.300;2023-05-07T02:57:52;1.75;;;1.33;;
12476;SDS011;6303;51.504;6.300;2023-05-07T03:00:19;1.58;;;1.48;;
12476;SDS011;6303;51.504;6.300;2023-05-07T03:03:01;1.50;;;1.40;;
12476;SDS011;6303;51.504;6.300;2023-05-07T03:05:28;1.98;;;1.50;;
12476;SDS011;6303;51.504;6.300;2023-05-07T03:07:55;1.60;;;1.50;;
12476;SDS011;6303;51.504;6.300;2023-05-07T03:10:23;1.63;;;1.50;;
12476;SDS011;6303;51.504;6.300;2023-05-07T03:12:50;1.77;;;1.55;;
12476;SDS011;6303;51.504;6.300;2023-05-07T03:15:17;1.60;;;1.40;;
12476;SDS011;6303;51.504;6.300;2023-05-07T03:17:44;1.60;;;1.50;;
12476;SDS011;6303;51.504;6.300;2023-05-07T03:20:12;1.65;;;1.52;;
12476;SDS011;6303;51.504;6.300;2023-05-07T03:22:40;1.70;;;1.60;;
12476;SDS011;6303;51.504;6.300;2023-05-07T03:25:08;2.05;;;1.60;;
12476;SDS011;6303;51.504;6.300;2023-05-07T03:27:35;1.60;;;1.50;;
12476;SDS011;6303;51.504;6.300;2023-05-07T03:30:04;2.10;;;1.45;;
12476;SDS011;6303;51.504;6.300;2023-05-07T03:32:32;1.80;;;1.70;;
12476;SDS011;6303;51.504;6.300;2023-05-07T03:34:59;1.90;;;1.70;;
12476;SDS011;6303;51.504;6.300;2023-05-07T03:37:27;1.40;;;1.30;;
12476;SDS011;6303;51.504;6.300;2023-05-07T03:39:54;2.72;;;1.70;;
12476;SDS011;6303;51.504;6.300;2023-05-07T03:42:22;2.13;;;1.80;;
12476;SDS011;6303;51.504;6.300;2023-05-07T03:44:51;1.73;;;1.63;;
12476;SDS011;6303;51.504;6.300;2023-05-07T03:47:18;1.90;;;1.80;;
12476;SDS011;6303;51.504;6.300;2023-05-07T03:49:46;1.98;;;1.80;;
12476;SDS011;6303;51.504;6.300;2023-05-07T03:52:14;2.25;;;1.80;;
12476;SDS011;6303;51.504;6.300;2023-05-07T03:54:42;1.60;;;1.50;;
12476;SDS011;6303;51.504;6.300;2023-05-07T03:57:12;1.75;;;1.50;;
12476;SDS011;6303;51.504;6.300;2023-05-07T03:59:39;1.73;;;1.60;;
12476;SDS011;6303;51.504;6.300;2023-05-07T04:02:07;1.80;;;1.70;;
12476;SDS011;6303;51.504;6.300;2023-05-07T04:04:34;1.60;;;1.50;;
12476;SDS011;6303;51.504;6.300;2023-05-07T04:07:01;1.60;;;1.50;;
12476;SDS011;6303;51.504;6.300;2023-05-07T04:09:32;1.88;;;1.70;;
12476;SDS011;6303;51.504;6.300;2023-05-07T04:12:00;1.83;;;1.60;;
12476;SDS011;6303;51.504;6.300;2023-05-07T04:14:28;2.10;;;1.90;;
12476;SDS011;6303;51.504;6.300;2023-05-07T04:16:57;1.85;;;1.60;;
12476;SDS011;6303;51.504;6.300;2023-05-07T04:19:25;1.70;;;1.60;;
12476;SDS011;6303;51.504;6.300;2023-05-07T04:21:53;1.60;;;1.50;;
12476;SDS011;6303;51.504;6.300;2023-05-07T04:24:21;1.73;;;1.63;;
12476;SDS011;6303;51.504;6.300;2023-05-07T04:26:48;1.75;;;1.65;;
12476;SDS011;6303;51.504;6.300;2023-05-07T04:29:18;1.42;;;1.40;;
12476;SDS011;6303;51.504;6.300;2023-05-07T04:31:46;1.98;;;1.77;;
12476;SDS011;6303;51.504;6.300;2023-05-07T04:34:13;2.55;;;1.67;;
12476;SDS011;6303;51.504;6.300;2023-05-07T04:36:41;1.95;;;1.80;;
12476;SDS011;6303;51.504;6.300;2023-05-07T04:39:11;1.95;;;1.85;;
12476;SDS011;6303;51.504;6.300;2023-05-07T04:41:41;1.70;;;1.60;;
12476;SDS011;6303;51.504;6.300;2023-05-07T04:44:09;1.73;;;1.60;;
12476;SDS011;6303;51.504;6.300;2023-05-07T04:46:38;1.70;;;1.60;;
12476;SDS011;6303;51.504;6.300;2023-05-07T04:49:05;1.88;;;1.70;;
12476;SDS011;6303;51.504;6.300;2023-05-07T04:51:33;1.80;;;1.65;;
12476;SDS011;6303;51.504;6.300;2023-05-07T04:54:00;1.67;;;1.58;;
12476;SDS011;6303;51.504;6.300;2023-05-07T04:56:29;1.52;;;1.42;;
12476;SDS011;6303;51.504;6.300;2023-05-07T04:58:57;1.70;;;1.60;;
12476;SDS011;6303;51.504;6.300;2023-05-07T05:01:24;2.10;;;1.75;;
12476;SDS011;6303;51.504;6.300;2023-05-07T05:03:53;1.50;;;1.40;;
12476;SDS011;6303;51.504;6.300;2023-05-07T05:06:20;1.60;;;1.50;;
12476;SDS011;6303;51.504;6.300;2023-05-07T05:08:47;1.70;;;1.60;;
12476;SDS011;6303;51.504;6.300;2023-05-07T05:11:14;1.65;;;1.52;;
12476;SDS011;6303;51.504;6.300;2023-05-07T05:13:41;1.95;;;1.70;;
12476;SDS011;6303;51.504;6.300;2023-05-07T05:16:13;1.70;;;1.60;;
12476;SDS011;6303;51.504;6.300;2023-05-07T05:18:41;3.30;;;1.67;;
12476;SDS011;6303;51.504;6.300;2023-05-07T05:21:12;1.70;;;1.60;;
12476;SDS011;6303;51.504;6.300;2023-05-07T05:23:41;1.83;;;1.50;;
12476;SDS011;6303;51.504;6.300;2023-05-07T05:26:08;1.73;;;1.63;;
12476;SDS011;6303;51.504;6.300;2023-05-07T05:28:35;1.80;;;1.70;;
12476;SDS011;6303;51.504;6.300;2023-05-07T05:31:04;1.90;;;1.77;;
12476;SDS011;6303;51.504;6.300;2023-05-07T05:33:34;1.80;;;1.70;;
12476;SDS011;6303;51.504;6.300;2023-05-07T05:36:04;1.98;;;1.80;;
12476;SDS011;6303;51.504;6.300;2023-05-07T05:38:33;1.70;;;1.58;;
12476;SDS011;6303;51.504;6.300;2023-05-07T05:41:01;1.70;;;1.60;;
12476;SDS011;6303;51.504;6.300;2023-05-07T05:43:29;7.15;;;5.68;;
12476;SDS011;6303;51.504;6.300;2023-05-07T05:45:57;6.88;;;6.28;;
12476;SDS011;6303;51.504;6.300;2023-05-07T05:48:24;10.82;;;4.72;;
12476;SDS011;6303;51.504;6.300;2023-05-07T05:50:52;10.88;;;3.67;;
12476;SDS011;6303;51.504;6.300;2023-05-07T05:53:19;9.65;;;3.13;;
12476;SDS011;6303;51.504;6.300;2023-05-07T05:55:47;5.70;;;3.10;;
12476;SDS011;6303;51.504;6.300;2023-05-07T05:58:17;3.63;;;2.70;;
12476;SDS011;6303;51.504;6.300;2023-05-07T06:00:50;4.18;;;2.50;;
12476;SDS011;6303;51.504;6.300;2023-05-07T06:03:20;3.22;;;2.50;;
12476;SDS011;6303;51.504;6.300;2023-05-07T06:05:48;4.65;;;2.30;;
12476;SDS011;6303;51.504;6.300;2023-05-07T06:08:16;3.78;;;2.45;;
12476;SDS011;6303;51.504;6.300;2023-05-07T06:10:44;4.38;;;2.45;;
12476;SDS011;6303;51.504;6.300;2023-05-07T06:13:12;2.85;;;2.25;;
12476;SDS011;6303;51.504;6.300;2023-05-07T06:15:40;3.72;;;2.15;;
12476;SDS011;6303;51.504;6.300;2023-05-07T06:18:11;6.20;;;2.40;;
12476;SDS011;6303;51.504;6.300;2023-05-07T06:20:38;3.45;;;2.30;;
12476;SDS011;6303;51.504;6.300;2023-05-07T06:23:10;2.75;;;2.03;;
12476;SDS011;6303;51.504;6.300;2023-05-07T06:25:37;2.70;;;2.17;;
12476;SDS011;6303;51.504;6.300;2023-05-07T06:28:05;3.45;;;2.15;;
12476;SDS011;6303;51.504;6.300;2023-05-07T06:30:37;4.22;;;2.03;;
12476;SDS011;6303;51.504;6.300;2023-05-07T06:33:05;2.97;;;2.05;;
12476;SDS011;6303;51.504;6.300;2023-05-07T06:35:32;3.00;;;2.10;;
12476;SDS011;6303;51.504;6.300;2023-05-07T06:37:59;2.78;;;2.00;;
12476;SDS011;6303;51.504;6.300;2023-05-07T06:40:28;3.15;;;1.70;;
12476;SDS011;6303;51.504;6.300;2023-05-07T06:42:58;2.08;;;1.88;;
12476;SDS011;6303;51.504;6.300;2023-05-07T06:45:39;3.85;;;2.13;;
12476;SDS011;6303;51.504;6.300;2023-05-07T06:48:08;2.25;;;1.90;;
12476;SDS011;6303;51.504;6.300;2023-05-07T06:50:44;2.40;;;2.03;;
12476;SDS011;6303;51.504;6.300;2023-05-07T06:53:11;2.30;;;2.00;;
12476;SDS011;6303;51.504;6.300;2023-05-07T06:55:39;2.97;;;1.85;;
12476;SDS011;6303;51.504;6.300;2023-05-07T06:58:07;3.95;;;1.80;;
12476;SDS011;6303;51.504;6.300;2023-05-07T07:00:34;3.35;;;1.80;;
12476;SDS011;6303;51.504;6.300;2023-05-07T07:03:03;2.83;;;1.70;;
12476;SDS011;6303;51.504;6.300;2023-05-07T07:05:30;2.42;;;1.52;;
12476;SDS011;6303;51.504;6.300;2023-05-07T07:07:58;2.60;;;2.10;;
12476;SDS011;6303;51.504;6.300;2023-05-07T07:10:25;5.38;;;2.03;;
12476;SDS011;6303;51.504;6.300;2023-05-07T07:12:54;3.53;;;1.83;;
12476;SDS011;6303;51.504;6.300;2023-05-07T07:15:21;11.90;;;2.58;;
12476;SDS011;6303;51.504;6.300;2023-05-07T07:17:50;7.72;;;2.15;;
12476;SDS011;6303;51.504;6.300;2023-05-07T07:20:19;10.85;;;2.40;;
12476;SDS011;6303;51.504;6.300;2023-05-07T07:22:46;15.23;;;2.60;;
12476;SDS011;6303;51.504;6.300;2023-05-07T07:25:15;12.30;;;2.55;;
12476;SDS011;6303;51.504;6.300;2023-05-07T07:27:42;8.30;;;2.30;;
12476;SDS011;6303;51.504;6.300;2023-05-07T07:30:12;4.57;;;2.60;;
12476;SDS011;6303;51.504;6.300;2023-05-07T07:32:41;5.35;;;3.25;;
12476;SDS011;6303;51.504;6.300;2023-05-07T07:35:09;8.82;;;3.97;;
12476;SDS011;6303;51.504;6.300;2023-05-07T07:37:39;5.47;;;3.30;;
12476;SDS011;6303;51.504;6.300;2023-05-07T07:40:06;10.38;;;3.47;;
12476;SDS011;6303;51.504;6.300;2023-05-07T07:42:35;13.48;;;3.63;;
12476;SDS011;6303;51.504;6.300;2023-05-07T07:45:03;7.18;;;3.53;;
12476;SDS011;6303;51.504;6.300;2023-05-07T07:47:33;5.53;;;3.08;;
12476;SDS011;6303;51.504;6.300;2023-05-07T07:50:01;5.32;;;3.13;;
12476;SDS011;6303;51.504;6.300;2023-05-07T07:52:28;7.63;;;2.92;;
12476;SDS011;6303;51.504;6.300;2023-05-07T07:54:57;5.32;;;3.05;;
12476;SDS011;6303;51.504;6.300;2023-05-07T07:57:24;3.60;;;2.78;;
12476;SDS011;6303;51.504;6.300;2023-05-07T07:59:52;4.68;;;3.45;;
12476;SDS011;6303;51.504;6.300;2023-05-07T08:02:19;4.82;;;3.10;;
12476;SDS011;6303;51.504;6.300;2023-05-07T08:04:48;5.78;;;2.72;;
12476;SDS011;6303;51.504;6.300;2023-05-07T08:07:16;4.00;;;2.65;;
12476;SDS011;6303;51.504;6.300;2023-05-07T08:09:46;5.57;;;4.07;;
12476;SDS011;6303;51.504;6.300;2023-05-07T08:12:17;4.28;;;3.60;;
12476;SDS011;6303;51.504;6.300;2023-05-07T08:14:45;3.90;;;3.10;;
12476;SDS011;6303;51.504;6.300;2023-05-07T08:17:12;5.05;;;3.13;;
12476;SDS011;6303;51.504;6.300;2023-05-07T08:19:41;4.20;;;3.30;;
12476;SDS011;6303;51.504;6.300;2023-05-07T08:22:11;3.88;;;3.42;;
12476;SDS011;6303;51.504;6.300;2023-05-07T08:24:39;4.55;;;3.20;;
12476;SDS011;6303;51.504;6.300;2023-05-07T08:27:06;4.13;;;3.40;;
12476;SDS011;6303;51.504;6.300;2023-05-07T08:29:35;4.32;;;3.40;;
12476;SDS011;6303;51.504;6.300;2023-05-07T08:32:02;4.32;;;3.30;;
12476;SDS011;6303;51.504;6.300;2023-05-07T08:34:30;3.97;;;3.03;;
12476;SDS011;6303;51.504;6.300;2023-05-07T08:36:58;4.13;;;3.35;;
12476;SDS011;6303;51.504;6.300;2023-05-07T08:39:26;3.67;;;3.05;;
12476;SDS011;6303;51.504;6.300;2023-05-07T08:41:55;3.97;;;3.15;;
12476;SDS011;6303;51.504;6.300;2023-05-07T08:44:24;4.43;;;2.90;;
12476;SDS011;6303;51.504;6.300;2023-05-07T08:46:54;4.10;;;3.42;;
12476;SDS011;6303;51.504;6.300;2023-05-07T08:49:23;3.33;;;3.03;;
12476;SDS011;6303;51.504;6.300;2023-05-07T08:51:51;3.97;;;2.83;;
12476;SDS011;6303;51.504;6.300;2023-05-07T08:54:19;3.38;;;3.05;;
12476;SDS011;6303;51.504;6.300;2023-05-07T08:56:47;3.35;;;3.05;;
12476;SDS011;6303;51.504;6.300;2023-05-07T08:59:15;3.55;;;3.00;;
12476;SDS011;6303;51.504;6.300;2023-05-07T09:01:43;3.67;;;3.10;;
12476;SDS011;6303;51.504;6.300;2023-05-07T09:04:12;4.65;;;3.20;;
12476;SDS011;6303;51.504;6.300;2023-05-07T09:06:39;4.50;;;3.53;;
12476;SDS011;6303;51.504;6.300;2023-05-07T09:09:09;3.83;;;3.08;;
12476;SDS011;6303;51.504;6.300;2023-05-07T09:11:41;3.63;;;2.90;;
12476;SDS011;6303;51.504;6.300;2023-05-07T09:14:08;3.97;;;3.25;;
12476;SDS011;6303;51.504;6.300;2023-05-07T09:16:39;3.22;;;2.83;;
12476;SDS011;6303;51.504;6.300;2023-05-07T09:19:07;3.20;;;2.90;;
12476;SDS011;6303;51.504;6.300;2023-05-07T09:21:36;3.85;;;3.38;;
12476;SDS011;6303;51.504;6.300;2023-05-07T09:24:07;3.83;;;3.42;;
12476;SDS011;6303;51.504;6.300;2023-05-07T09:26:38;5.00;;;3.50;;
12476;SDS011;6303;51.504;6.300;2023-05-07T09:29:07;4.40;;;3.60;;
12476;SDS011;6303;51.504;6.300;2023-05-07T09:31:36;4.30;;;3.90;;
12476;SDS011;6303;51.504;6.300;2023-05-07T09:34:05;4.43;;;3.67;;
12476;SDS011;6303;51.504;6.300;2023-05-07T09:36:34;4.18;;;3.35;;
12476;SDS011;6303;51.504;6.300;2023-05-07T09:39:03;3.45;;;3.15;;
12476;SDS011;6303;51.504;6.300;2023-05-07T09:41:30;4.90;;;3.50;;
12476;SDS011;6303;51.504;6.300;2023-05-07T09:44:05;3.65;;;3.35;;
12476;SDS011;6303;51.504;6.300;2023-05-07T09:46:38;3.35;;;2.97;;
12476;SDS011;6303;51.504;6.300;2023-05-07T09:49:18;4.03;;;3.13;;
12476;SDS011;6303;51.504;6.300;2023-05-07T09:51:53;3.08;;;2.83;;
12476;SDS011;6303;51.504;6.300;2023-05-07T09:54:24;3.55;;;2.90;;
12476;SDS011;6303;51.504;6.300;2023-05-07T09:56:54;4.30;;;3.40;;
12476;SDS011;6303;51.504;6.300;2023-05-07T09:59:25;3.70;;;3.35;;
12476;SDS011;6303;51.504;6.300;2023-05-07T10:01:54;3.63;;;3.33;;
12476;SDS011;6303;51.504;6.300;2023-05-07T10:04:24;4.63;;;2.97;;
12476;SDS011;6303;51.504;6.300;2023-05-07T10:06:53;3.97;;;2.88;;
12476;SDS011;6303;51.504;6.300;2023-05-07T10:09:22;4.00;;;3.30;;
12476;SDS011;6303;51.504;6.300;2023-05-07T10:11:50;3.10;;;2.80;;
12476;SDS011;6303;51.504;6.300;2023-05-07T10:14:20;3.97;;;3.40;;
12476;SDS011;6303;51.504;6.300;2023-05-07T10:16:49;3.15;;;2.85;;
12476;SDS011;6303;51.504;6.300;2023-05-07T10:19:17;3.22;;;2.92;;
12476;SDS011;6303;51.504;6.300;2023-05-07T10:21:51;2.97;;;2.78;;
12476;SDS011;6303;51.504;6.300;2023-05-07T10:24:26;4.57;;;2.80;;
12476;SDS011;6303;51.504;6.300;2023-05-07T10:26:57;4.07;;;2.80;;
12476;SDS011;6303;51.504;6.300;2023-05-07T10:29:29;4.00;;;2.97;;
12476;SDS011;6303;51.504;6.300;2023-05-07T10:32:09;3.15;;;2.85;;
12476;SDS011;6303;51.504;6.300;2023-05-07T10:34:43;4.03;;;3.10;;
12476;SDS011;6303;51.504;6.300;2023-05-07T10:37:14;2.92;;;2.63;;
12476;SDS011;6303;51.504;6.300;2023-05-07T10:39:42;3.67;;;3.08;;
12476;SDS011;6303;51.504;6.300;2023-05-07T10:42:09;3.33;;;3.10;;
12476;SDS011;6303;51.504;6.300;2023-05-07T10:44:41;3.72;;;2.97;;
12476;SDS011;6303;51.504;6.300;2023-05-07T10:47:15;3.50;;;3.00;;
12476;SDS011;6303;51.504;6.300;2023-05-07T10:56:23;2.97;;;2.67;;
12476;SDS011;6303;51.504;6.300;2023-05-07T10:59:30;3.08;;;2.83;;
12476;SDS011;6303;51.504;6.300;2023-05-07T11:02:13;2.50;;;2.30;;
12476;SDS011;6303;51.504;6.300;2023-05-07T11:07:53;3.15;;;2.38;;
12476;SDS011;6303;51.504;6.300;2023-05-07T11:10:24;3.13;;;2.83;;
12476;SDS011;6303;51.504;6.300;2023-05-07T11:16:17;2.90;;;2.60;;
12476;SDS011;6303;51.504;6.300;2023-05-07T11:18:47;2.70;;;2.50;;
12476;SDS011;6303;51.504;6.300;2023-05-07T11:21:31;2.63;;;2.42;;
12476;SDS011;6303;51.504;6.300;2023-05-07T11:24:07;3.05;;;2.20;;
12476;SDS011;6303;51.504;6.300;2023-05-07T11:26:53;2.80;;;2.60;;
12476;SDS011;6303;51.504;6.300;2023-05-07T11:29:22;2.30;;;2.20;;
12476;SDS011;6303;51.504;6.300;2023-05-07T11:31:58;2.60;;;2.40;;
12476;SDS011;6303;51.504;6.300;2023-05-07T11:34:30;3.15;;;2.70;;
12476;SDS011;6303;51.504;6.300;2023-05-07T11:36:58;2.67;;;2.47;;
12476;SDS011;6303;51.504;6.300;2023-05-07T11:39:42;2.97;;;2.25;;
12476;SDS011;6303;51.504;6.300;2023-05-07T11:45:04;2.78;;;2.58;;
12476;SDS011;6303;51.504;6.300;2023-05-07T11:47:32;2.70;;;2.38;;
12476;SDS011;6303;51.504;6.300;2023-05-07T11:50:02;2.47;;;2.33;;
12476;SDS011;6303;51.504;6.300;2023-05-07T11:52:30;4.10;;;2.60;;
12476;SDS011;6303;51.504;6.300;2023-05-07T11:54:58;2.95;;;2.58;;
12476;SDS011;6303;51.504;6.300;2023-05-07T11:57:26;2.63;;;2.42;;
12476;SDS011;6303;51.504;6.300;2023-05-07T11:59:53;2.70;;;2.50;;
12476;SDS011;6303;51.504;6.300;2023-05-07T12:02:22;2.30;;;2.10;;
12476;SDS011;6303;51.504;6.300;2023-05-07T12:04:50;2.60;;;2.40;;
12476;SDS011;6303;51.504;6.300;2023-05-07T12:07:17;3.00;;;2.60;;
12476;SDS011;6303;51.504;6.300;2023-05-07T12:09:44;4.13;;;2.95;;
12476;SDS011;6303;51.504;6.300;2023-05-07T12:12:12;3.20;;;2.90;;
12476;SDS011;6303;51.504;6.300;2023-05-07T12:14:41;4.20;;;3.00;;
12476;SDS011;6303;51.504;6.300;2023-05-07T12:17:09;3.00;;;2.80;;
12476;SDS011;6303;51.504;6.300;2023-05-07T12:19:39;4.45;;;3.10;;
12476;SDS011;6303;51.504;6.300;2023-05-07T12:22:08;5.00;;;3.05;;
12476;SDS011;6303;51.504;6.300;2023-05-07T12:24:43;4.20;;;3.10;;
12476;SDS011;6303;51.504;6.300;2023-05-07T12:27:11;3.42;;;2.95;;
12476;SDS011;6303;51.504;6.300;2023-05-07T12:29:38;4.65;;;3.03;;
12476;SDS011;6303;51.504;6.300;2023-05-07T12:32:12;4.85;;;2.80;;
12476;SDS011;6303;51.504;6.300;2023-05-07T12:34:41;3.65;;;2.70;;
12476;SDS011;6303;51.504;6.300;2023-05-07T12:37:08;5.43;;;2.83;;
12476;SDS011;6303;51.504;6.300;2023-05-07T12:39:37;5.97;;;2.70;;
12476;SDS011;6303;51.504;6.300;2023-05-07T12:42:05;4.50;;;2.80;;
12476;SDS011;6303;51.504;6.300;2023-05-07T12:44:32;5.00;;;2.70;;
12476;SDS011;6303;51.504;6.300;2023-05-07T12:47:01;3.92;;;2.83;;
12476;SDS011;6303;51.504;6.300;2023-05-07T12:49:28;4.63;;;2.42;;
12476;SDS011;6303;51.504;6.300;2023-05-07T12:51:57;5.18;;;2.53;;
12476;SDS011;6303;51.504;6.300;2023-05-07T12:54:28;3.10;;;2.30;;
12476;SDS011;6303;51.504;6.300;2023-05-07T12:57:02;4.18;;;2.50;;
12476;SDS011;6303;51.504;6.300;2023-05-07T12:59:31;4.22;;;2.70;;
12476;SDS011;6303;51.504;6.300;2023-05-07T13:01:59;3.28;;;2.60;;
12476;SDS011;6303;51.504;6.300;2023-05-07T13:04:26;3.08;;;2.63;;
12476;SDS011;6303;51.504;6.300;2023-05-07T13:06:53;4.18;;;2.63;;
12476;SDS011;6303;51.504;6.300;2023-05-07T13:09:21;2.80;;;2.50;;
12476;SDS011;6303;51.504;6.300;2023-05-07T13:11:48;2.70;;;2.50;;
12476;SDS011;6303;51.504;6.300;2023-05-07T13:14:15;3.92;;;2.47;;
12476;SDS011;6303;51.504;6.300;2023-05-07T13:16:42;5.40;;;3.03;;
12476;SDS011;6303;51.504;6.300;2023-05-07T13:19:09;4.13;;;3.10;;
12476;SDS011;6303;51.504;6.300;2023-05-07T13:21:36;3.45;;;2.83;;
12476;SDS011;6303;51.504;6.300;2023-05-07T13:24:04;6.10;;;3.22;;
12476;SDS011;6303;51.504;6.300;2023-05-07T13:26:33;4.05;;;2.72;;
12476;SDS011;6303;51.504;6.300;2023-05-07T13:29:00;5.80;;;2.80;;
12476;SDS011;6303;51.504;6.300;2023-05-07T13:31:27;6.80;;;3.38;;
12476;SDS011;6303;51.504;6.300;2023-05-07T13:33:55;4.15;;;2.60;;
12476;SDS011;6303;51.504;6.300;2023-05-07T13:36:22;2.85;;;2.50;;
12476;SDS011;6303;51.504;6.300;2023-05-07T13:38:49;3.38;;;2.60;;
12476;SDS011;6303;51.504;6.300;2023-05-07T13:41:17;4.00;;;3.00;;
12476;SDS011;6303;51.504;6.300;2023-05-07T13:43:46;4.72;;;2.92;;
12476;SDS011;6303;51.504;6.300;2023-05-07T13:46:13;5.13;;;2.75;;
12476;SDS011;6303;51.504;6.300;2023-05-07T13:48:41;4.53;;;2.40;;
12476;SDS011;6303;51.504;6.300;2023-05-07T13:51:08;2.72;;;2.42;;
12476;SDS011;6303;51.504;6.300;2023-05-07T13:53:35;3.33;;;2.75;;
12476;SDS011;6303;51.504;6.300;2023-05-07T13:56:02;3.30;;;2.83;;
12476;SDS011;6303;51.504;6.300;2023-05-07T13:58:30;3.25;;;2.70;;
12476;SDS011;6303;51.504;6.300;2023-05-07T14:00:58;5.40;;;2.97;;
12476;SDS011;6303;51.504;6.300;2023-05-07T14:03:25;5.70;;;3.55;;
12476;SDS011;6303;51.504;6.300;2023-05-07T14:05:52;10.25;;;4.32;;
12476;SDS011;6303;51.504;6.300;2023-05-07T14:08:19;14.85;;;5.30;;
12476;SDS011;6303;51.504;6.300;2023-05-07T14:10:46;17.10;;;6.00;;
12476;SDS011;6303;51.504;6.300;2023-05-07T14:13:13;14.73;;;6.20;;
12476;SDS011;6303;51.504;6.300;2023-05-07T14:15:40;16.48;;;6.28;;
12476;SDS011;6303;51.504;6.300;2023-05-07T14:18:12;15.10;;;5.97;;
12476;SDS011;6303;51.504;6.300;2023-05-07T14:20:39;12.90;;;6.07;;
12476;SDS011;6303;51.504;6.300;2023-05-07T14:23:08;15.73;;;6.50;;
12476;SDS011;6303;51.504;6.300;2023-05-07T14:25:35;18.88;;;8.05;;
12476;SDS011;6303;51.504;6.300;2023-05-07T14:28:02;19.80;;;7.68;;
12476;SDS011;6303;51.504;6.300;2023-05-07T14:30:29;21.50;;;8.00;;
12476;SDS011;6303;51.504;6.300;2023-05-07T14:32:56;21.20;;;8.57;;
12476;SDS011;6303;51.504;6.300;2023-05-07T14:35:24;23.77;;;8.30;;
12476;SDS011;6303;51.504;6.300;2023-05-07T14:37:51;14.45;;;6.68;;
12476;SDS011;6303;51.504;6.300;2023-05-07T14:40:18;16.75;;;5.95;;
12476;SDS011;6303;51.504;6.300;2023-05-07T14:42:45;16.83;;;6.43;;
12476;SDS011;6303;51.504;6.300;2023-05-07T14:45:12;13.57;;;5.88;;
12476;SDS011;6303;51.504;6.300;2023-05-07T14:47:40;11.23;;;5.85;;
12476;SDS011;6303;51.504;6.300;2023-05-07T14:50:07;14.82;;;4.80;;
12476;SDS011;6303;51.504;6.300;2023-05-07T14:52:36;11.35;;;5.30;;
12476;SDS011;6303;51.504;6.300;2023-05-07T14:55:03;13.20;;;4.72;;
12476;SDS011;6303;51.504;6.300;2023-05-07T14:57:31;12.68;;;4.70;;
12476;SDS011;6303;51.504;6.300;2023-05-07T15:00:00;11.80;;;4.50;;
12476;SDS011;6303;51.504;6.300;2023-05-07T15:02:27;12.90;;;4.47;;
12476;SDS011;6303;51.504;6.300;2023-05-07T15:04:55;11.82;;;4.50;;
12476;SDS011;6303;51.504;6.300;2023-05-07T15:07:22;8.60;;;4.82;;
12476;SDS011;6303;51.504;6.300;2023-05-07T15:09:51;9.18;;;4.45;;
12476;SDS011;6303;51.504;6.300;2023-05-07T15:12:19;7.22;;;4.25;;
12476;SDS011;6303;51.504;6.300;2023-05-07T15:14:46;9.00;;;3.67;;
12476;SDS011;6303;51.504;6.300;2023-05-07T15:17:12;7.20;;;4.05;;
12476;SDS011;6303;51.504;6.300;2023-05-07T15:19:40;8.90;;;4.35;;
12476;SDS011;6303;51.504;6.300;2023-05-07T15:22:07;6.53;;;3.65;;
12476;SDS011;6303;51.504;6.300;2023-05-07T15:24:35;8.27;;;4.03;;
12476;SDS011;6303;51.504;6.300;2023-05-07T15:27:03;7.97;;;3.58;;